Time;durP1;ratioP1;P1;durP2;ratioP2;P2;SDS_P1;SDS_P2;PMS_P1;PMS_P2;Temp;Humidity;BMP_temperature;BMP_pressure;BME280_temperature;BME280_humidity;BME280_pressure;Samples;Min_cycle;Max_cycle;Signal;HPM_P1;HPM_P2
2023/12/13 00:01:44;;;;;;;0.15;0.13;;;;;;;11.83;57.92;101366.56;5007651;28;20443;-75
2023/12/13 00:04:13;;;;;;;0.30;0.17;;;;;;;11.78;58.90;101365.53;5006938;28;20109;-74
2023/12/13 00:06:42;;;;;;;0.25;0.08;;;;;;;11.72;58.40;101371.34;5006899;28;20046;-73
2023/12/13 00:09:12;;;;;;;0.28;0.20;;;;;;;11.67;58.85;101377.22;5004228;28;20050;-72
2023/12/13 00:11:41;;;;;;;0.15;0.10;;;;;;;11.60;60.02;101377.84;5006245;28;20062;-73
2023/12/13 00:14:12;;;;;;;1.02;0.25;;;;;;;11.51;60.01;101368.03;5003390;28;20045;-71
2023/12/13 00:16:41;;;;;;;0.32;0.20;;;;;;;11.42;60.74;101376.34;5005495;28;20428;-73
2023/12/13 00:19:10;;;;;;;0.35;0.28;;;;;;;11.32;62.00;101369.97;5003963;28;20058;-74
2023/12/13 00:21:39;;;;;;;0.77;0.40;;;;;;;11.23;60.33;101367.03;5001213;28;20073;-74
2023/12/13 00:24:08;;;;;;;0.13;0.13;;;;;;;11.17;61.60;101376.28;5004365;28;20050;-73
2023/12/13 00:26:39;;;;;;;0.52;0.30;;;;;;;11.13;61.85;101366.63;5004992;28;20050;-77
2023/12/13 00:29:08;;;;;;;0.43;0.25;;;;;;;11.04;61.85;101362.00;5005588;28;20118;-74
2023/12/13 00:31:40;;;;;;;0.63;0.20;;;;;;;10.98;64.37;101367.84;5004252;28;20069;-73
2023/12/13 00:34:08;;;;;;;0.38;0.20;;;;;;;10.90;63.46;101375.31;5005383;28;20142;-73
2023/12/13 00:36:37;;;;;;;0.22;0.22;;;;;;;10.84;63.62;101380.25;5009853;28;20561;-72
2023/12/13 00:39:06;;;;;;;0.32;0.30;;;;;;;10.78;63.22;101373.97;5004259;28;20455;-75
2023/12/13 00:41:35;;;;;;;0.20;0.10;;;;;;;10.68;63.72;101367.56;5005071;28;20053;-72
2023/12/13 00:44:07;;;;;;;0.90;0.28;;;;;;;10.61;66.11;101375.91;5004631;28;20050;-72
2023/12/13 00:46:36;;;;;;;0.63;0.22;;;;;;;10.53;65.31;101370.41;5005755;28;20397;-72
2023/12/13 00:49:05;;;;;;;0.30;0.20;;;;;;;10.45;66.33;101364.94;5005798;28;20062;-72
2023/12/13 00:51:34;;;;;;;0.47;0.25;;;;;;;10.34;66.73;101367.94;5004804;28;20492;-72
2023/12/13 00:54:03;;;;;;;0.43;0.13;;;;;;;10.32;67.10;101382.50;5002265;28;20571;-72
2023/12/13 00:56:36;;;;;;;0.30;0.30;;;;;;;10.23;67.64;101373.50;5004373;28;20104;-72
2023/12/13 00:59:07;;;;;;;0.45;0.38;;;;;;;10.19;67.94;101361.28;5001572;28;20434;-73
2023/12/13 01:01:46;;;;;;;0.20;0.10;;;;;;;10.15;68.56;101384.38;5006316;28;20057;-73
2023/12/13 01:04:14;;;;;;;0.20;0.20;;;;;;;10.13;67.73;101379.13;5001145;28;20076;-75
2023/12/13 01:06:43;;;;;;;0.17;0.17;;;;;;;10.10;68.34;101373.84;5000813;28;20050;-74
2023/12/13 01:09:12;;;;;;;0.40;0.30;;;;;;;10.05;69.22;101377.91;5004344;28;20042;-73
2023/12/13 01:11:41;;;;;;;0.35;0.25;;;;;;;10.02;69.69;101382.97;5005748;28;20053;-73
2023/12/13 01:14:16;;;;;;;0.30;0.20;;;;;;;9.97;70.16;101374.16;5000544;28;20052;-72
2023/12/13 01:16:44;;;;;;;0.43;0.20;;;;;;;9.90;69.92;101374.72;5005828;28;20058;-72
2023/12/13 01:19:14;;;;;;;0.22;0.20;;;;;;;9.86;70.23;101376.28;5003112;28;20519;-72
2023/12/13 01:21:42;;;;;;;0.28;0.20;;;;;;;9.80;70.45;101376.00;5006522;28;20144;-72
2023/12/13 01:24:11;;;;;;;0.63;0.30;;;;;;;9.75;72.22;101383.56;5006520;28;20457;-72
2023/12/13 01:26:43;;;;;;;0.20;0.20;;;;;;;9.71;71.33;101379.09;5009423;28;20050;-73
2023/12/13 01:29:13;;;;;;;0.43;0.27;;;;;;;9.64;71.84;101384.78;5002573;28;20107;-72
2023/12/13 01:31:42;;;;;;;0.43;0.30;;;;;;;9.62;71.30;101383.84;5005337;28;20129;-73
2023/12/13 01:34:11;;;;;;;2.38;0.30;;;;;;;9.57;72.22;101378.47;5003108;28;20652;-73
2023/12/13 01:36:43;;;;;;;3.75;0.73;;;;;;;9.49;72.48;101379.84;5008540;28;20061;-74
2023/12/13 01:39:12;;;;;;;1.13;0.10;;;;;;;9.47;73.20;101370.28;5021191;28;20057;-73
2023/12/13 01:41:43;;;;;;;0.30;0.30;;;;;;;9.43;73.63;101375.28;5023088;28;20053;-73
2023/12/13 01:44:21;;;;;;;0.60;0.30;;;;;;;9.38;73.14;101373.34;5023212;28;20049;-74
2023/12/13 01:46:51;;;;;;;1.42;0.40;;;;;;;9.35;73.63;101371.50;5022824;28;20140;-73
2023/12/13 01:49:20;;;;;;;0.22;0.10;;;;;;;9.33;73.51;101378.31;5021921;28;20108;-72
2023/12/13 01:51:49;;;;;;;0.85;0.25;;;;;;;9.32;74.64;101371.38;5026054;28;20124;-73
2023/12/13 01:54:20;;;;;;;0.47;0.20;;;;;;;9.23;73.76;101371.84;5023301;28;20500;-73
2023/12/13 01:56:51;;;;;;;0.20;0.17;;;;;;;9.26;72.96;101389.19;5029594;28;20945;-73
2023/12/13 01:59:22;;;;;;;0.93;0.30;;;;;;;9.25;73.49;101395.13;5028557;28;20049;-73
2023/12/13 02:01:52;;;;;;;0.10;0.10;;;;;;;9.24;74.60;101388.22;5028678;28;20053;-73
2023/12/13 02:04:25;;;;;;;0.60;0.30;;;;;;;9.18;74.35;101378.47;5025736;28;20044;-73
2023/12/13 02:06:54;;;;;;;0.30;0.30;;;;;;;9.15;74.36;101387.81;5025281;28;20522;-72
2023/12/13 02:09:23;;;;;;;0.38;0.30;;;;;;;9.18;74.12;101387.94;5025504;28;20526;-73
2023/12/13 02:11:52;;;;;;;0.50;0.25;;;;;;;9.15;74.82;101392.97;5029137;28;20046;-74
2023/12/13 02:14:25;;;;;;;0.40;0.25;;;;;;;9.13;74.58;101389.44;5029194;28;20068;-73
2023/12/13 02:16:54;;;;;;;0.43;0.35;;;;;;;9.12;74.54;101398.00;5025189;28;20049;-73
2023/12/13 02:19:23;;;;;;;0.40;0.38;;;;;;;9.07;74.79;101381.41;5030496;28;20053;-74
2023/12/13 02:21:51;;;;;;;0.20;0.20;;;;;;;9.08;74.68;101375.44;5032023;28;20045;-73
2023/12/13 02:24:24;;;;;;;0.45;0.30;;;;;;;9.06;74.83;101372.78;5027208;28;20045;-73
2023/12/13 02:26:54;;;;;;;0.28;0.28;;;;;;;9.05;75.43;101380.44;5027143;28;20059;-73
2023/12/13 02:29:23;;;;;;;0.73;0.35;;;;;;;9.05;75.32;101377.84;5026877;28;20519;-72
2023/12/13 02:31:51;;;;;;;0.75;0.28;;;;;;;9.02;74.46;101369.19;5025989;28;20492;-73
2023/12/13 02:34:20;;;;;;;2.08;0.35;;;;;;;9.02;75.35;101379.50;5025768;28;20053;-74
2023/12/13 02:36:53;;;;;;;0.40;0.40;;;;;;;9.02;74.40;101376.94;5028411;28;20062;-73
2023/12/13 02:39:22;;;;;;;;;;;;;;;9.02;75.38;101376.94;5024474;28;20465;-74
2023/12/13 02:41:51;;;;;;;0.20;0.20;;;;;;;9.01;75.44;101377.72;5026657;28;19925;-74
2023/12/13 02:44:20;;;;;;;0.13;0.13;;;;;;;8.98;74.99;101382.75;5026798;28;20042;-74
2023/12/13 02:46:49;;;;;;;1.42;0.40;;;;;;;9.00;75.30;101388.88;5024603;28;20483;-73
2023/12/13 02:49:18;;;;;;;0.38;0.35;;;;;;;9.02;74.40;101395.00;5026925;28;20503;-74
2023/12/13 02:51:47;;;;;;;0.47;0.30;;;;;;;8.99;75.28;101381.94;5026016;28;20053;-74
2023/12/13 02:54:18;;;;;;;0.55;0.25;;;;;;;9.01;75.18;101389.75;5025520;28;20566;-73
2023/12/13 02:56:49;;;;;;;1.35;0.43;;;;;;;8.97;74.86;101370.66;5026872;28;20053;-73
2023/12/13 02:59:17;;;;;;;0.40;0.30;;;;;;;8.96;76.65;101371.47;5023715;28;20050;-74
2023/12/13 03:01:46;;;;;;;0.90;0.30;;;;;;;8.91;76.22;101380.72;5025184;28;20045;-74
2023/12/13 03:04:15;;;;;;;1.15;0.57;;;;;;;8.92;76.90;101385.06;5026110;28;20224;-75
2023/12/13 03:06:43;;;;;;;0.77;0.25;;;;;;;8.93;76.98;101380.75;5026463;28;20046;-76
2023/12/13 03:09:14;;;;;;;0.77;0.47;;;;;;;8.91;77.78;101378.13;5021037;28;20053;-76
2023/12/13 03:11:48;;;;;;;0.32;0.28;;;;;;;8.89;78.73;101376.31;5024265;28;20049;-75
2023/12/13 03:14:19;;;;;;;0.63;0.43;;;;;;;8.88;77.97;101372.81;5023284;28;20045;-76
2023/12/13 03:16:47;;;;;;;0.98;0.57;;;;;;;8.87;77.88;101373.63;5024337;28;20053;-74
2023/12/13 03:19:18;;;;;;;0.75;0.40;;;;;;;8.85;79.40;101379.53;5022983;28;20057;-77
2023/12/13 03:21:47;;;;;;;0.40;0.30;;;;;;;8.75;79.65;101366.22;5027125;28;20440;-74
2023/12/13 03:24:16;;;;;;;0.30;0.30;;;;;;;8.80;82.10;101376.75;5025890;28;20515;-75
2023/12/13 03:26:45;;;;;;;1.83;0.47;;;;;;;8.78;82.26;101380.94;5024077;28;20037;-75
2023/12/13 03:29:13;;;;;;;1.52;0.50;;;;;;;8.78;80.77;101380.94;5027099;28;20049;-73
2023/12/13 03:31:45;;;;;;;1.63;0.30;;;;;;;8.76;79.22;101377.41;5022328;28;20042;-74
2023/12/13 03:34:15;;;;;;;0.43;0.30;;;;;;;8.72;78.53;101371.22;5024349;28;20041;-75
2023/12/13 03:36:47;;;;;;;0.30;0.30;;;;;;;8.76;77.07;101380.00;5026152;28;20061;-75
2023/12/13 03:39:16;;;;;;;0.73;0.40;;;;;;;8.74;76.95;101379.03;5026076;28;20069;-75
2023/12/13 03:41:45;;;;;;;1.15;0.40;;;;;;;8.76;76.04;101374.84;5025360;28;20061;-77
2023/12/13 03:44:14;;;;;;;0.50;0.35;;;;;;;8.77;76.52;101376.59;5024072;28;20049;-74
2023/12/13 03:46:44;;;;;;;0.52;0.30;;;;;;;8.78;76.70;101365.47;5025614;28;20046;-72
2023/12/13 03:49:20;;;;;;;0.25;0.17;;;;;;;8.74;76.80;101368.72;5023626;28;20407;-76
2023/12/13 03:51:52;;;;;;;0.40;0.30;;;;;;;8.77;77.01;101374.91;5025413;28;20662;-77
2023/12/13 03:54:21;;;;;;;0.20;0.20;;;;;;;8.75;77.41;101365.31;5023645;28;20034;-75
2023/12/13 03:56:49;;;;;;;0.20;0.20;;;;;;;8.76;76.96;101367.09;5026241;28;20200;-77
2023/12/13 03:59:18;;;;;;;1.08;0.60;;;;;;;8.76;76.91;101367.97;5024844;28;20076;-77
2023/12/13 04:01:52;;;;;;;0.73;0.40;;;;;;;8.74;76.75;101366.13;5024795;28;20045;-78
2023/12/13 04:04:20;;;;;;;0.60;0.40;;;;;;;8.76;77.23;101367.97;5024592;28;20053;-76
2023/12/13 04:06:49;;;;;;;1.08;0.40;;;;;;;8.74;76.77;101369.59;5024889;28;20041;-77
2023/12/13 04:09:18;;;;;;;1.55;0.30;;;;;;;8.71;77.49;101363.41;5026186;28;20444;-76
2023/12/13 04:11:46;;;;;;;0.20;0.20;;;;;;;8.75;78.91;101380.78;5024976;28;20057;-75
2023/12/13 04:14:17;;;;;;;0.20;0.20;;;;;;;8.71;78.83;101384.94;5025862;28;20104;-75
2023/12/13 04:16:46;;;;;;;0.17;0.15;;;;;;;8.67;77.85;101382.16;5026600;28;20046;-76
2023/12/13 04:19:16;;;;;;;0.75;0.40;;;;;;;8.71;76.30;101384.06;5023288;28;20407;-74
2023/12/13 04:21:45;;;;;;;0.70;0.43;;;;;;;8.64;77.83;101374.28;5023022;28;20492;-76
2023/12/13 04:24:17;;;;;;;0.60;0.40;;;;;;;8.69;77.31;101380.53;5023553;28;20061;-78
2023/12/13 04:26:46;;;;;;;0.30;0.30;;;;;;;8.64;76.44;101376.84;5023897;28;20045;-75
2023/12/13 04:29:15;;;;;;;0.93;0.32;;;;;;;8.62;77.87;101378.47;5024580;28;20150;-74
2023/12/13 04:31:44;;;;;;;0.28;0.20;;;;;;;8.57;78.37;101384.28;5021513;28;20096;-74
2023/12/13 04:34:13;;;;;;;0.50;0.30;;;;;;;8.56;77.88;101379.91;5026406;28;20053;-76
2023/12/13 04:36:46;;;;;;;0.65;0.35;;;;;;;8.54;83.17;101376.41;5027318;28;20052;-78
2023/12/13 04:39:15;;;;;;;0.28;0.28;;;;;;;8.49;82.83;101371.84;5025927;28;20053;-75
2023/12/13 04:41:43;;;;;;;0.20;0.20;;;;;;;8.45;81.67;101365.63;5026300;28;20076;-76
2023/12/13 04:44:12;;;;;;;0.52;0.40;;;;;;;8.52;80.00;101372.88;5027528;28;20045;-75
2023/12/13 04:46:44;;;;;;;1.10;0.30;;;;;;;8.55;79.52;101377.28;5026088;28;20288;-76
2023/12/13 04:49:12;;;;;;;0.60;0.20;;;;;;;8.57;81.58;101383.41;5023815;28;20058;-74
2023/12/13 04:51:43;;;;;;;0.20;0.15;;;;;;;8.55;80.54;101387.59;5026877;28;20053;-75
2023/12/13 04:54:11;;;;;;;0.20;0.13;;;;;;;8.53;78.95;101379.78;5023830;28;20053;-75
2023/12/13 04:56:40;;;;;;;0.75;0.32;;;;;;;8.51;82.34;101386.56;5026820;28;20053;-76
2023/12/13 04:59:09;;;;;;;1.27;0.40;;;;;;;8.46;80.98;101388.03;5025761;28;20056;-77
2023/12/13 05:01:38;;;;;;;0.35;0.35;;;;;;;8.44;81.97;101378.47;5024878;28;20046;-75
2023/12/13 05:04:09;;;;;;;0.40;0.35;;;;;;;8.43;81.52;101372.44;5025041;28;20049;-78
2023/12/13 05:06:38;;;;;;;0.80;0.35;;;;;;;8.41;83.49;101375.72;5025307;28;20057;-77
2023/12/13 05:09:11;;;;;;;0.28;0.28;;;;;;;8.36;81.75;101372.88;5025709;28;20570;-78
2023/12/13 05:11:39;;;;;;;0.40;0.30;;;;;;;8.35;82.96;101368.56;5027319;28;20049;-78
2023/12/13 05:14:08;;;;;;;0.63;0.20;;;;;;;8.33;84.26;101365.91;5029246;28;20684;-80
2023/12/13 05:16:36;;;;;;;0.45;0.40;;;;;;;8.30;82.46;101364.88;5026764;28;20140;-77
2023/12/13 05:19:07;;;;;;;0.65;0.40;;;;;;;8.27;79.97;101362.13;5025646;28;20046;-80
2023/12/13 05:21:38;;;;;;;0.88;0.30;;;;;;;8.27;80.67;101369.88;5027712;28;20145;-78
2023/12/13 05:24:09;;;;;;;0.50;0.20;;;;;;;8.28;81.81;101372.53;5024842;28;20091;-79
2023/12/13 05:26:37;;;;;;;0.38;0.38;;;;;;;8.27;81.09;101369.88;5022402;28;20132;-79
2023/12/13 05:29:06;;;;;;;0.50;0.40;;;;;;;8.26;80.25;101368.13;5023421;28;20057;-77
2023/12/13 05:31:40;;;;;;;0.57;0.32;;;;;;;8.18;79.66;101355.75;5025336;28;20049;-77
2023/12/13 05:34:08;;;;;;;0.15;0.10;;;;;;;8.32;79.26;101373.56;5024550;28;20050;-78
2023/12/13 05:36:37;;;;;;;0.17;0.17;;;;;;;8.33;81.87;101360.75;5026186;28;20069;-78
2023/12/13 05:39:10;;;;;;;0.22;0.22;;;;;;;8.31;79.84;101352.03;5026237;28;20068;-76
2023/12/13 05:41:39;;;;;;;0.57;0.40;;;;;;;8.32;80.36;101347.78;5026210;28;20582;-77
2023/12/13 05:44:10;;;;;;;0.17;0.17;;;;;;;8.35;79.04;101353.97;5024257;28;20053;-77
2023/12/13 05:46:39;;;;;;;0.43;0.30;;;;;;;8.37;78.16;101354.06;5027977;28;20049;-77
2023/12/13 05:49:08;;;;;;;0.28;0.28;;;;;;;8.37;78.30;101351.47;5021778;28;20053;-78
2023/12/13 05:51:39;;;;;;;0.40;0.30;;;;;;;8.39;77.55;101352.44;5026837;28;20254;-79
2023/12/13 05:54:09;;;;;;;0.57;0.38;;;;;;;8.39;78.57;101357.59;5023399;28;20573;-76
2023/12/13 05:56:37;;;;;;;0.77;0.38;;;;;;;8.37;80.78;101346.31;5026483;28;20054;-79
2023/12/13 05:59:06;;;;;;;2.28;0.30;;;;;;;8.36;80.81;101354.84;5024155;28;20064;-78
2023/12/13 06:01:35;;;;;;;0.20;0.15;;;;;;;8.34;79.16;101359.06;5027288;28;20075;-78
2023/12/13 06:04:05;;;;;;;0.45;0.20;;;;;;;8.31;79.03;101357.19;5024758;28;20041;-75
2023/12/13 06:06:34;;;;;;;0.40;0.32;;;;;;;8.31;78.66;101351.16;5021975;28;20212;-75
2023/12/13 06:09:03;;;;;;;0.55;0.32;;;;;;;8.31;76.86;101348.59;5024762;28;20053;-75
2023/12/13 06:11:37;;;;;;;0.50;0.30;;;;;;;8.32;79.38;101351.25;5026010;28;20049;-75
2023/12/13 06:14:05;;;;;;;0.20;0.20;;;;;;;8.32;79.62;101350.38;5025448;28;20502;-74
2023/12/13 06:16:34;;;;;;;3.97;0.52;;;;;;;8.31;77.79;101351.16;5026457;28;20071;-73
2023/12/13 06:19:03;;;;;;;0.40;0.40;;;;;;;8.33;77.81;101359.84;5019778;28;20049;-74
2023/12/13 06:21:35;;;;;;;1.65;0.38;;;;;;;8.34;77.05;101357.38;5026616;28;20103;-73
2023/12/13 06:24:04;;;;;;;0.77;0.30;;;;;;;8.35;75.69;101364.28;5025600;28;20053;-74
2023/12/13 06:26:38;;;;;;;0.60;0.30;;;;;;;8.36;83.19;101358.31;5027206;28;20132;-73
2023/12/13 06:29:06;;;;;;;0.32;0.30;;;;;;;8.37;81.16;101343.72;5024486;28;20167;-75
2023/12/13 06:31:35;;;;;;;1.42;0.40;;;;;;;8.39;82.45;101355.88;5020783;28;20621;-74
2023/12/13 06:34:04;;;;;;;0.65;0.40;;;;;;;8.38;78.95;101348.06;5023300;28;20430;-74
2023/12/13 06:36:38;;;;;;;0.20;0.20;;;;;;;8.38;78.26;101353.22;5023903;28;20056;-73
2023/12/13 06:39:11;;;;;;;0.28;0.20;;;;;;;8.39;77.66;101347.28;5008125;28;20053;-73
2023/12/13 06:41:41;;;;;;;0.20;0.15;;;;;;;8.41;77.74;101348.28;5007440;28;20790;-73
2023/12/13 06:44:10;;;;;;;0.30;0.20;;;;;;;8.45;76.87;101345.00;5004798;28;20435;-72
2023/12/13 06:46:38;;;;;;;0.60;0.43;;;;;;;8.43;78.42;101351.81;5007684;28;20140;-73
2023/12/13 06:49:09;;;;;;;1.77;0.32;;;;;;;8.37;77.69;101354.06;5007141;28;20112;-74
2023/12/13 06:51:38;;;;;;;1.02;0.30;;;;;;;8.34;78.97;101359.06;5009067;28;20480;-74
2023/12/13 06:54:13;;;;;;;0.75;0.32;;;;;;;8.34;78.10;101357.38;5007860;28;20065;-74
2023/12/13 06:56:43;;;;;;;0.57;0.50;;;;;;;8.31;77.82;101352.03;5007937;28;20096;-73
2023/12/13 06:59:12;;;;;;;0.47;0.20;;;;;;;8.30;81.00;101339.97;5008067;28;20050;-74
2023/12/13 07:01:42;;;;;;;0.43;0.32;;;;;;;8.33;79.90;101339.22;5009800;28;20053;-74
2023/12/13 07:04:11;;;;;;;0.40;0.40;;;;;;;8.33;77.06;101326.34;5007633;28;20042;-74
2023/12/13 07:06:45;;;;;;;2.17;0.50;;;;;;;8.34;79.95;101320.38;5005071;28;20050;-75
2023/12/13 07:09:18;;;;;;;0.55;0.40;;;;;;;8.33;78.81;101316.03;5005766;28;20112;-75
2023/12/13 07:11:48;;;;;;;0.57;0.38;;;;;;;8.32;77.71;101315.16;5010385;28;20056;-74
2023/12/13 07:14:17;;;;;;;1.13;0.30;;;;;;;8.30;77.90;101318.47;5006382;28;20046;-74
2023/12/13 07:16:47;;;;;;;2.25;0.35;;;;;;;8.29;78.01;101317.59;5011378;28;20046;-73
2023/12/13 07:19:16;;;;;;;1.00;0.45;;;;;;;8.30;78.35;101318.47;5010038;28;20060;-74
2023/12/13 07:21:45;;;;;;;0.93;0.45;;;;;;;8.28;78.05;101320.09;5010337;28;20069;-74
2023/12/13 07:24:14;;;;;;;0.50;0.40;;;;;;;8.26;77.41;101325.16;5006929;28;20062;-75
2023/12/13 07:26:42;;;;;;;1.33;0.28;;;;;;;8.25;76.19;101318.25;5007662;28;20057;-74
2023/12/13 07:29:13;;;;;;;0.52;0.30;;;;;;;8.27;80.08;101326.03;5007935;28;20133;-74
2023/12/13 07:31:41;;;;;;;0.95;0.30;;;;;;;8.25;77.13;101317.38;5008178;28;20057;-74
2023/12/13 07:34:11;;;;;;;0.40;0.28;;;;;;;8.26;82.64;101314.84;5006772;28;20056;-74
2023/12/13 07:36:45;;;;;;;1.00;0.20;;;;;;;8.25;82.00;101317.38;5005070;28;20062;-74
2023/12/13 07:39:14;;;;;;;2.90;0.30;;;;;;;8.19;80.83;101311.09;5018588;28;20053;-75
2023/12/13 07:41:43;;;;;;;0.60;0.30;;;;;;;8.21;80.63;101318.03;5026657;28;20053;-74
2023/12/13 07:44:13;;;;;;;1.00;0.50;;;;;;;8.19;78.68;101305.06;5025128;28;20446;-74
2023/12/13 07:46:41;;;;;;;4.78;0.47;;;;;;;8.21;78.53;101307.72;5023281;28;20075;-75
2023/12/13 07:49:10;;;;;;;0.47;0.40;;;;;;;8.18;77.61;101323.94;5023696;28;20049;-75
2023/12/13 07:51:39;;;;;;;0.63;0.38;;;;;;;8.16;77.11;101321.25;5026343;28;20049;-74
2023/12/13 07:54:08;;;;;;;0.65;0.28;;;;;;;8.17;77.98;101315.28;5024172;28;20049;-74
2023/12/13 07:56:37;;;;;;;1.23;0.40;;;;;;;8.18;77.53;101314.50;5026480;28;20598;-74
2023/12/13 07:59:06;;;;;;;0.95;0.68;;;;;;;8.22;76.70;101309.47;5021292;28;20049;-74
2023/12/13 08:01:36;;;;;;;0.45;0.30;;;;;;;8.21;76.95;101313.75;5027350;28;20061;-73
2023/12/13 08:04:05;;;;;;;0.65;0.40;;;;;;;8.22;77.03;101304.31;5027348;28;20115;-74
2023/12/13 08:06:34;;;;;;;1.02;0.50;;;;;;;8.19;79.13;101295.63;5028701;28;20064;-73
2023/12/13 08:09:03;;;;;;;1.05;0.52;;;;;;;8.12;79.28;101287.53;5022696;28;20157;-74
2023/12/13 08:11:33;;;;;;;0.68;0.50;;;;;;;8.11;79.40;101286.66;5027833;28;20046;-74
2023/12/13 08:14:04;;;;;;;0.80;0.50;;;;;;;8.09;78.20;101283.13;5027473;28;20049;-75
2023/12/13 08:16:35;;;;;;;0.40;0.20;;;;;;;8.09;79.26;101282.25;5020101;28;20479;-72
2023/12/13 08:19:04;;;;;;;1.02;0.40;;;;;;;8.05;79.37;101281.19;5025667;28;20076;-74
2023/12/13 08:21:40;;;;;;;0.57;0.40;;;;;;;8.07;77.98;101283.88;5021467;28;20562;-74
2023/12/13 08:24:13;;;;;;;0.90;0.50;;;;;;;8.04;78.96;101291.44;5025925;28;20144;-74
2023/12/13 08:26:41;;;;;;;0.30;0.20;;;;;;;7.98;79.60;101285.19;5024805;28;20061;-75
2023/12/13 08:29:10;;;;;;;0.75;0.32;;;;;;;7.97;79.80;101287.66;5027041;28;20041;-75
2023/12/13 08:31:42;;;;;;;0.82;0.55;;;;;;;7.94;78.94;101282.38;5025320;28;20056;-74
2023/12/13 08:34:11;;;;;;;1.38;0.57;;;;;;;7.89;79.17;101286.44;5025042;28;20476;-75
2023/12/13 08:36:41;;;;;;;0.30;0.30;;;;;;;7.84;80.63;101267.28;5022643;28;20408;-73
2023/12/13 08:39:09;;;;;;;2.22;0.30;;;;;;;7.84;79.59;101285.31;5024624;28;20554;-74
2023/12/13 08:41:38;;;;;;;0.38;0.30;;;;;;;7.84;79.86;101287.91;5025347;28;20060;-73
2023/12/13 08:44:16;;;;;;;0.50;0.30;;;;;;;7.85;79.71;101292.22;5024538;28;20052;-74
2023/12/13 08:46:47;;;;;;;0.30;0.30;;;;;;;7.85;78.84;101293.09;5023310;28;20162;-74
2023/12/13 08:49:16;;;;;;;0.35;0.30;;;;;;;7.84;77.96;101291.34;5023131;28;20125;-74
2023/12/13 08:51:44;;;;;;;2.15;0.60;;;;;;;7.82;79.44;101281.78;5025016;28;20041;-75
2023/12/13 08:54:13;;;;;;;1.45;0.50;;;;;;;7.79;79.37;101281.63;5022730;28;20099;-73
2023/12/13 08:56:42;;;;;;;4.88;0.40;;;;;;;7.79;84.37;101289.34;5025926;28;20060;-74
2023/12/13 08:59:16;;;;;;;0.30;0.30;;;;;;;7.69;83.57;101296.63;5025148;28;20052;-75
2023/12/13 09:01:50;;;;;;;1.13;0.55;;;;;;;7.66;81.59;101296.47;5025260;28;20575;-74
2023/12/13 09:04:19;;;;;;;0.85;0.82;;;;;;;7.63;81.20;101293.75;5022804;28;20103;-75
2023/12/13 09:06:48;;;;;;;0.32;0.28;;;;;;;7.56;82.53;101304.56;5025681;28;20068;-74
2023/12/13 09:09:22;;;;;;;0.80;0.30;;;;;;;7.55;86.09;101282.19;5024129;28;20053;-75
2023/12/13 09:11:55;;;;;;;0.40;0.40;;;;;;;7.57;85.24;101283.16;5025834;28;20069;-74
2023/12/13 09:14:23;;;;;;;0.20;0.20;;;;;;;7.58;88.61;101290.03;5023758;28;20056;-75
2023/12/13 09:16:54;;;;;;;0.63;0.40;;;;;;;7.58;84.36;101264.28;5025312;28;20038;-74
2023/12/13 09:19:22;;;;;;;9.95;0.47;;;;;;;7.61;87.21;101277.34;5023293;28;20075;-74
2023/12/13 09:21:51;;;;;;;0.25;0.25;;;;;;;7.61;86.74;101269.63;5022083;28;20049;-74
2023/12/13 09:24:21;;;;;;;0.40;0.20;;;;;;;7.61;84.42;101267.03;5023578;28;20056;-74
2023/12/13 09:26:50;;;;;;;0.55;0.30;;;;;;;7.59;84.21;101273.81;5024457;28;20045;-75
2023/12/13 09:29:17;;;;;;;0.63;0.43;;;;;;;7.57;83.39;101269.38;5022818;28;20740;-74
2023/12/13 09:31:46;;;;;;;1.00;0.47;;;;;;;7.52;84.39;101270.03;5024792;28;20049;-74
2023/12/13 09:34:21;;;;;;;0.55;0.47;;;;;;;7.51;83.61;101275.09;5021518;28;20057;-74
2023/12/13 09:36:50;;;;;;;0.20;0.20;;;;;;;7.55;84.27;101277.03;5026586;28;20046;-74
2023/12/13 09:39:18;;;;;;;0.70;0.25;;;;;;;7.52;82.83;101262.31;5025442;28;20053;-75
2023/12/13 09:41:58;;;;;;;1.58;0.50;;;;;;;7.50;85.25;101268.19;5024224;28;20620;-74
2023/12/13 09:44:28;;;;;;;0.30;0.30;;;;;;;7.50;88.64;101263.03;5026127;28;20059;-72
2023/12/13 09:47:00;;;;;;;0.30;0.30;;;;;;;7.47;89.44;101242.31;5027946;28;20053;-73
2023/12/13 09:49:34;;;;;;;0.45;0.32;;;;;;;7.38;89.89;101237.56;5025161;28;20045;-75
2023/12/13 09:52:05;;;;;;;0.60;0.25;;;;;;;7.34;88.72;101239.09;5023004;28;20085;-72
2023/12/13 09:54:35;;;;;;;0.95;0.40;;;;;;;7.30;87.89;101238.88;5023884;28;20656;-73
2023/12/13 09:57:05;;;;;;;0.88;0.45;;;;;;;7.28;88.11;101245.63;5020925;28;20071;-73
2023/12/13 09:59:38;;;;;;;0.25;0.20;;;;;;;7.24;86.16;101254.91;5024081;28;20096;-74
2023/12/13 10:02:14;;;;;;;0.68;0.43;;;;;;;7.20;86.12;101252.09;5020358;28;20053;-74
2023/12/13 10:04:46;;;;;;;1.27;0.50;;;;;;;7.12;87.13;101255.16;5024257;28;20049;-74
2023/12/13 10:07:17;;;;;;;0.85;0.40;;;;;;;7.10;87.46;101259.34;5027004;28;20041;-74
2023/12/13 10:09:46;;;;;;;0.60;0.47;;;;;;;7.05;90.20;101252.16;5025717;28;20128;-74
2023/12/13 10:12:16;;;;;;;0.32;0.30;;;;;;;7.03;91.05;101254.69;5025207;28;20538;-74
2023/12/13 10:14:44;;;;;;;0.88;0.30;;;;;;;7.03;91.35;101254.69;5026350;28;20045;-75
2023/12/13 10:17:13;;;;;;;0.40;0.30;;;;;;;7.04;92.18;101255.56;5027128;28;20073;-74
2023/12/13 10:19:47;;;;;;;0.85;0.40;;;;;;;7.09;92.87;101269.53;5028148;28;20037;-75
2023/12/13 10:22:17;;;;;;;0.40;0.30;;;;;;;7.12;91.75;101268.03;5028314;28;20049;-74
2023/12/13 10:24:47;;;;;;;0.77;0.30;;;;;;;7.12;90.69;101267.13;5027183;28;20084;-75
2023/12/13 10:27:17;;;;;;;1.08;0.30;;;;;;;7.12;91.21;101267.13;5028620;28;20049;-75
2023/12/13 10:29:49;;;;;;;0.95;0.45;;;;;;;7.10;92.20;101267.06;5024211;28;20073;-74
2023/12/13 10:32:18;;;;;;;0.50;0.38;;;;;;;7.08;90.92;101276.38;5026452;28;20052;-75
2023/12/13 10:34:54;;;;;;;1.08;0.43;;;;;;;7.03;89.83;101275.28;5021747;28;20053;-74
2023/12/13 10:37:30;;;;;;;0.57;0.40;;;;;;;7.02;90.00;101272.59;5021257;28;20495;-74
2023/12/13 10:39:59;;;;;;;0.52;0.32;;;;;;;7.04;89.56;101268.44;5006412;28;20050;-74
2023/12/13 10:42:28;;;;;;;0.32;0.20;;;;;;;7.06;89.78;101266.81;5008407;28;20049;-74
2023/12/13 10:44:57;;;;;;;0.63;0.30;;;;;;;7.02;88.89;101278.63;5010028;28;20045;-75
2023/12/13 10:47:26;;;;;;;0.68;0.43;;;;;;;7.01;90.71;101283.69;5006536;28;20050;-74
2023/12/13 10:49:57;;;;;;;0.50;0.30;;;;;;;6.99;90.33;101286.19;5007675;28;20046;-74
2023/12/13 10:52:27;;;;;;;0.30;0.30;;;;;;;6.95;89.20;101285.97;5009254;28;20054;-74
2023/12/13 10:54:57;;;;;;;0.25;0.25;;;;;;;6.92;91.52;101285.00;5003450;28;20054;-74
2023/12/13 10:57:27;;;;;;;1.05;0.38;;;;;;;6.90;92.65;101283.16;5008437;28;20129;-74
2023/12/13 10:59:58;;;;;;;1.05;0.50;;;;;;;6.91;92.59;101284.91;5007090;28;20041;-74
2023/12/13 11:08:46;;;;;;;0.30;0.30;;;;;;;6.90;89.89;101298.59;4967293;28;20463;-74
2023/12/13 11:11:16;;;;;;;0.30;0.30;;;;;;;6.89;90.42;101314.81;5007422;28;20065;-74
2023/12/13 11:13:48;;;;;;;1.02;0.40;;;;;;;6.83;89.18;101307.66;5004318;28;20065;-73
2023/12/13 11:16:19;;;;;;;0.70;0.40;;;;;;;6.76;88.79;101305.56;5012376;28;20046;-74
2023/12/13 11:18:48;;;;;;;0.70;0.40;;;;;;;6.71;89.81;101302.75;5004541;28;20045;-74
2023/12/13 11:21:26;;;;;;;0.47;0.43;;;;;;;6.68;91.12;101296.53;5007644;28;20061;-74
2023/12/13 11:23:57;;;;;;;0.80;0.35;;;;;;;6.62;93.54;101293.63;5004541;28;20071;-75
2023/12/13 11:26:27;;;;;;;0.50;0.45;;;;;;;6.54;95.19;101298.38;5001884;28;20101;-74
2023/12/13 11:28:57;;;;;;;0.32;0.32;;;;;;;6.49;97.45;101299.81;5008752;28;20053;-74
2023/12/13 11:31:26;;;;;;;1.95;0.40;;;;;;;6.45;96.27;101290.16;5009815;28;20046;-73
2023/12/13 11:33:56;;;;;;;0.55;0.47;;;;;;;6.41;96.40;101291.66;5008150;28;20057;-73
2023/12/13 11:36:28;;;;;;;0.65;0.40;;;;;;;6.36;96.24;101284.50;5006157;28;20046;-74
2023/12/13 11:38:59;;;;;;;0.50;0.40;;;;;;;6.28;95.51;101278.97;5024835;28;20066;-74
2023/12/13 11:41:28;;;;;;;1.40;0.52;;;;;;;6.17;96.28;101269.78;5026616;28;20063;-74
2023/12/13 11:43:57;;;;;;;1.58;0.65;;;;;;;6.19;95.72;101284.47;5025580;28;20591;-73
2023/12/13 11:46:29;;;;;;;2.17;0.60;;;;;;;6.17;96.60;101275.78;5025909;28;20508;-74
2023/12/13 11:48:58;;;;;;;0.77;0.52;;;;;;;6.22;96.33;101283.75;5026641;28;20053;-74
2023/12/13 11:51:27;;;;;;;3.05;0.77;;;;;;;6.21;96.03;101277.72;5022494;28;20072;-73